Time;durP1;ratioP1;P1;durP2;ratioP2;P2;SDS_P1;SDS_P2;PMS_P1;PMS_P2;Temp;Humidity;BMP_temperature;BMP_pressure;BME280_temperature;BME280_humidity;BME280_pressure;Samples;Min_cycle;Max_cycle;Signal;HPM_P1;HPM_P2
2023/05/09 00:01:12;;;;;;;6.90;6.30;;;16.90;99.90;;;;;;5032850;28;20217;-72
2023/05/09 00:03:39;;;;;;;7.13;5.93;;;16.90;99.90;;;;;;5032821;28;20464;-72
2023/05/09 00:06:06;;;;;;;6.00;5.40;;;16.90;99.90;;;;;;5032777;28;20464;-72
2023/05/09 00:08:32;;;;;;;8.23;6.60;;;16.90;99.90;;;;;;5032473;28;20437;-72
2023/05/09 00:10:57;;;;;;;7.07;5.50;;;16.90;99.90;;;;;;5032736;28;20398;-72
2023/05/09 00:13:23;;;;;;;7.30;6.53;;;16.90;99.90;;;;;;5032543;28;20490;-72
2023/05/09 00:15:52;;;;;;;6.57;5.87;;;16.80;99.90;;;;;;5047817;28;20202;-72
2023/05/09 00:18:21;;;;;;;8.33;7.40;;;16.80;99.90;;;;;;5032619;28;20895;-72
2023/05/09 00:20:47;;;;;;;5.97;5.30;;;16.80;99.90;;;;;;5032304;28;20434;-72
2023/05/09 00:23:13;;;;;;;7.00;5.83;;;16.80;99.90;;;;;;5032627;28;20493;-71
2023/05/09 00:25:38;;;;;;;6.20;5.40;;;16.90;99.90;;;;;;5032612;28;20537;-71
2023/05/09 00:28:04;;;;;;;8.03;6.03;;;16.90;99.90;;;;;;5032158;28;20167;-72
2023/05/09 00:30:30;;;;;;;6.03;5.10;;;16.90;99.90;;;;;;5032190;28;20164;-72
2023/05/09 00:32:55;;;;;;;7.47;6.23;;;16.90;99.90;;;;;;5032138;28;20175;-72
2023/05/09 00:35:21;;;;;;;6.80;5.63;;;16.90;99.90;;;;;;5031573;28;20910;-72
2023/05/09 00:37:47;;;;;;;5.70;5.10;;;16.90;99.90;;;;;;5031480;28;20584;-72
2023/05/09 00:40:12;;;;;;;6.90;6.13;;;17.00;99.90;;;;;;5031851;28;20171;-73
2023/05/09 00:42:38;;;;;;;8.43;6.20;;;16.90;99.90;;;;;;5031854;28;20168;-73
2023/05/09 00:45:04;;;;;;;8.13;6.13;;;16.90;99.90;;;;;;5032041;28;20226;-72
2023/05/09 00:47:30;;;;;;;7.07;5.43;;;16.80;99.90;;;;;;5031616;28;20196;-72
2023/05/09 00:49:56;;;;;;;6.37;5.33;;;16.80;99.90;;;;;;5031879;28;20404;-72
2023/05/09 00:52:24;;;;;;;5.53;4.70;;;16.80;99.90;;;;;;5032434;28;20171;-73
2023/05/09 00:54:51;;;;;;;6.90;4.60;;;16.80;99.90;;;;;;5032573;28;20406;-73
2023/05/09 00:57:17;;;;;;;4.93;4.50;;;16.80;99.90;;;;;;5031387;28;20480;-73
2023/05/09 00:59:43;;;;;;;7.00;5.63;;;16.80;99.90;;;;;;5032637;28;20810;-72
2023/05/09 01:02:08;;;;;;;7.47;6.07;;;16.80;99.90;;;;;;5032948;28;20163;-73
2023/05/09 01:04:34;;;;;;;6.97;5.43;;;16.80;99.90;;;;;;5032548;28;20175;-73
2023/05/09 01:07:42;;;;;;;6.57;5.17;;;16.80;99.90;;;;;;5047294;28;20282;-72
2023/05/09 01:10:20;;;;;;;6.87;5.20;;;16.80;99.90;;;;;;5026372;28;20233;-72
2023/05/09 01:12:53;;;;;;;6.83;5.77;;;16.80;99.90;;;;;;5032126;28;20437;-72
2023/05/09 01:15:28;;;;;;;12.47;7.77;;;16.70;99.90;;;;;;5032400;28;20812;-72
2023/05/09 01:18:23;;;;;;;8.03;5.93;;;16.70;99.90;;;;;;5031543;28;20405;-72
2023/05/09 01:20:59;;;;;;;14.37;8.50;;;16.70;99.90;;;;;;5009935;28;20410;-73
2023/05/09 01:23:58;;;;;;;15.67;9.20;;;16.80;99.90;;;;;;5032342;28;20480;-73
2023/05/09 01:26:54;;;;;;;11.60;8.87;;;16.80;99.90;;;;;;5031595;28;20464;-72
2023/05/09 01:29:41;;;;;;;11.83;7.37;;;16.80;99.90;;;;;;5032339;28;20470;-73
2023/05/09 01:32:14;;;;;;;13.13;8.50;;;16.80;99.90;;;;;;5032162;28;20402;-72
2023/05/09 01:34:41;;;;;;;14.67;10.60;;;16.90;99.90;;;;;;5032106;28;20398;-72
2023/05/09 01:37:08;;;;;;;11.10;7.83;;;16.90;99.90;;;;;;5031209;28;20981;-72
2023/05/09 01:39:37;;;;;;;14.30;10.30;;;16.90;99.90;;;;;;5031343;28;20398;-73
2023/05/09 01:42:06;;;;;;;16.00;10.07;;;16.90;99.90;;;;;;5031214;28;20918;-73
2023/05/09 01:44:41;;;;;;;15.83;10.03;;;16.90;99.90;;;;;;5031792;28;20402;-73
2023/05/09 01:47:07;;;;;;;12.90;9.67;;;16.90;99.90;;;;;;5047121;28;20548;-73
2023/05/09 01:49:35;;;;;;;19.17;11.23;;;16.90;99.90;;;;;;5032210;28;20481;-73
2023/05/09 01:52:05;;;;;;;15.60;9.83;;;16.80;99.90;;;;;;5032060;28;20402;-72
2023/05/09 01:54:32;;;;;;;14.40;10.07;;;16.90;99.90;;;;;;5031844;28;20441;-72
2023/05/09 01:56:58;;;;;;;17.37;9.10;;;16.90;99.90;;;;;;5031662;28;20427;-72
2023/05/09 01:59:25;;;;;;;12.57;9.20;;;16.90;99.90;;;;;;5031391;28;20779;-72
2023/05/09 02:01:51;;;;;;;12.70;8.90;;;16.90;99.90;;;;;;5030929;28;20404;-72
2023/05/09 02:04:18;;;;;;;12.57;10.13;;;16.90;99.90;;;;;;5031440;28;20439;-72
2023/05/09 02:06:48;;;;;;;15.70;9.90;;;16.80;99.90;;;;;;5031345;28;21182;-72
2023/05/09 02:09:14;;;;;;;11.53;8.20;;;16.90;99.90;;;;;;5034688;28;20402;-72
2023/05/09 02:11:39;;;;;;;15.50;9.63;;;16.90;99.90;;;;;;5035000;28;20418;-72
2023/05/09 02:14:05;;;;;;;14.33;8.70;;;16.90;99.90;;;;;;5035260;28;20160;-72
2023/05/09 02:16:31;;;;;;;15.30;10.70;;;17.00;99.90;;;;;;5034888;28;20559;-72
2023/05/09 02:18:57;;;;;;;18.80;12.77;;;16.90;99.90;;;;;;5050369;28;20168;-72
2023/05/09 02:21:23;;;;;;;14.50;9.97;;;16.80;99.90;;;;;;5035148;28;20508;-72
2023/05/09 02:23:49;;;;;;;15.47;11.20;;;16.70;99.90;;;;;;5034848;28;20446;-72
2023/05/09 02:26:15;;;;;;;14.00;10.43;;;16.60;99.90;;;;;;5034565;28;20576;-72
2023/05/09 02:28:43;;;;;;;18.87;11.23;;;16.60;99.90;;;;;;5034481;28;20245;-72
2023/05/09 02:31:09;;;;;;;20.60;11.67;;;16.60;99.90;;;;;;5034546;28;20172;-73
2023/05/09 02:33:37;;;;;;;14.17;11.90;;;16.60;99.90;;;;;;5035416;28;20402;-73
2023/05/09 02:36:04;;;;;;;14.13;10.13;;;16.60;99.90;;;;;;5034652;28;20434;-73
2023/05/09 02:38:30;;;;;;;14.33;10.63;;;16.60;99.90;;;;;;5034292;28;20926;-72
2023/05/09 02:40:55;;;;;;;12.00;9.60;;;16.70;99.90;;;;;;5034777;28;20410;-73
2023/05/09 02:43:21;;;;;;;10.27;9.23;;;16.70;99.90;;;;;;5034594;28;20230;-73
2023/05/09 02:45:46;;;;;;;12.60;9.90;;;16.70;99.90;;;;;;5049978;28;20262;-73
2023/05/09 02:48:12;;;;;;;15.13;11.37;;;16.70;99.90;;;;;;5049536;28;20710;-72
2023/05/09 02:50:38;;;;;;;15.93;10.80;;;16.70;99.90;;;;;;5033330;28;20163;-72
2023/05/09 02:53:04;;;;;;;12.13;10.50;;;16.70;99.90;;;;;;5034609;28;20163;-72
2023/05/09 02:55:30;;;;;;;14.03;10.37;;;16.80;99.90;;;;;;5034346;28;20501;-73
2023/05/09 02:57:56;;;;;;;14.97;9.80;;;16.80;99.90;;;;;;5034167;28;20494;-72
2023/05/09 03:00:24;;;;;;;15.23;11.87;;;16.80;99.90;;;;;;5049676;28;20979;-72
2023/05/09 03:02:50;;;;;;;15.93;13.37;;;16.80;99.90;;;;;;5033746;28;20522;-73
2023/05/09 03:05:16;;;;;;;19.17;15.80;;;16.70;99.90;;;;;;5033692;28;20490;-72
2023/05/09 03:07:42;;;;;;;18.30;14.57;;;16.70;99.90;;;;;;5033585;28;20200;-72
2023/05/09 03:10:11;;;;;;;15.80;12.00;;;16.70;99.90;;;;;;5033754;28;20937;-72
2023/05/09 03:12:37;;;;;;;14.33;12.83;;;16.60;99.90;;;;;;5033512;28;20509;-75
2023/05/09 03:15:05;;;;;;;14.93;11.63;;;16.60;99.90;;;;;;5033325;28;20931;-75
2023/05/09 03:17:30;;;;;;;14.03;11.50;;;16.50;99.90;;;;;;5033139;28;20428;-74
2023/05/09 03:19:56;;;;;;;14.10;10.20;;;16.50;99.90;;;;;;5032648;28;20406;-75
2023/05/09 03:22:21;;;;;;;12.90;10.30;;;16.50;99.90;;;;;;5033516;28;20675;-74
2023/05/09 03:24:47;;;;;;;13.93;11.23;;;16.50;99.90;;;;;;5033465;28;20795;-75
2023/05/09 03:27:13;;;;;;;13.10;11.70;;;16.50;99.90;;;;;;5033042;28;20202;-75
2023/05/09 03:29:38;;;;;;;14.37;11.07;;;16.40;99.90;;;;;;5033309;28;20168;-75
2023/05/09 03:32:04;;;;;;;13.90;11.20;;;16.40;99.90;;;;;;5033251;28;20182;-75
2023/05/09 03:34:29;;;;;;;13.67;11.37;;;16.40;99.90;;;;;;5033310;28;20257;-74
2023/05/09 03:36:55;;;;;;;12.60;9.53;;;16.40;99.90;;;;;;5032836;28;20261;-74
2023/05/09 03:39:20;;;;;;;12.13;10.33;;;16.40;99.90;;;;;;5033120;28;20246;-74
2023/05/09 03:41:46;;;;;;;15.57;10.80;;;16.40;99.90;;;;;;5032928;28;20172;-75
2023/05/09 03:44:11;;;;;;;11.50;10.30;;;16.40;99.90;;;;;;5031937;28;20175;-74
2023/05/09 03:46:37;;;;;;;10.87;9.73;;;16.40;99.90;;;;;;5032782;28;20199;-74
2023/05/09 03:49:03;;;;;;;15.00;11.50;;;16.40;99.90;;;;;;5032646;28;20164;-74
2023/05/09 03:51:29;;;;;;;13.73;12.00;;;16.40;99.90;;;;;;5032870;28;20159;-74
2023/05/09 03:53:55;;;;;;;13.47;10.80;;;16.40;99.90;;;;;;5032796;28;20164;-75
2023/05/09 03:56:21;;;;;;;13.27;10.43;;;16.30;99.90;;;;;;5032728;28;20437;-74
2023/05/09 03:58:47;;;;;;;21.17;11.97;;;16.40;99.90;;;;;;5032415;28;20167;-75
2023/05/09 04:01:13;;;;;;;17.03;14.53;;;16.40;99.90;;;;;;5031346;28;20418;-74
2023/05/09 04:03:39;;;;;;;11.33;10.03;;;16.40;99.90;;;;;;5032598;28;20178;-74
2023/05/09 04:06:04;;;;;;;14.20;10.37;;;16.50;99.90;;;;;;5032299;28;20226;-74
2023/05/09 04:08:31;;;;;;;14.50;11.07;;;16.50;99.90;;;;;;5032285;28;20402;-74
2023/05/09 04:10:57;;;;;;;20.43;14.70;;;16.50;99.90;;;;;;5032397;28;20406;-75
2023/05/09 04:13:22;;;;;;;29.17;18.63;;;16.50;99.90;;;;;;5032445;28;20402;-74
2023/05/09 04:15:48;;;;;;;24.83;17.17;;;16.40;99.90;;;;;;5030977;28;20220;-74
2023/05/09 04:18:14;;;;;;;17.60;13.27;;;16.30;99.90;;;;;;5032129;28;20199;-74
2023/05/09 04:20:40;;;;;;;15.87;12.13;;;16.30;99.90;;;;;;5032418;28;20500;-74
2023/05/09 04:23:05;;;;;;;14.20;10.83;;;16.30;99.90;;;;;;5032470;28;20172;-74
2023/05/09 04:25:31;;;;;;;14.50;12.03;;;16.20;99.90;;;;;;5031915;28;20182;-74
2023/05/09 04:27:56;;;;;;;14.77;11.47;;;16.20;99.90;;;;;;5031593;28;20265;-74
2023/05/09 04:30:25;;;;;;;13.73;10.80;;;16.10;99.90;;;;;;5003953;28;20224;-74
2023/05/09 04:32:52;;;;;;;13.63;11.00;;;16.10;99.90;;;;;;4992886;28;20577;-74
2023/05/09 04:35:18;;;;;;;15.30;11.70;;;16.00;99.90;;;;;;4992919;28;20414;-74
2023/05/09 04:37:43;;;;;;;14.57;10.30;;;16.00;99.90;;;;;;4992410;28;20436;-74
2023/05/09 04:40:10;;;;;;;14.23;10.73;;;16.00;99.90;;;;;;4992880;28;20234;-74
2023/05/09 04:42:36;;;;;;;21.03;11.73;;;16.00;99.90;;;;;;4992758;28;20169;-74
2023/05/09 04:45:02;;;;;;;13.43;10.67;;;16.00;99.90;;;;;;4991495;28;20420;-74
2023/05/09 04:47:27;;;;;;;15.53;11.60;;;16.00;99.90;;;;;;4992307;28;20659;-74
2023/05/09 04:49:53;;;;;;;18.83;12.80;;;16.00;99.90;;;;;;4992716;28;20169;-74
2023/05/09 04:52:18;;;;;;;15.13;11.17;;;15.90;99.90;;;;;;4992677;28;20165;-74
2023/05/09 04:54:44;;;;;;;17.40;14.17;;;15.90;99.90;;;;;;4992598;28;20917;-74
2023/05/09 04:57:09;;;;;;;19.27;13.50;;;15.90;99.90;;;;;;4990966;28;20195;-74
2023/05/09 04:59:35;;;;;;;13.93;11.60;;;15.90;99.90;;;;;;4992577;28;20177;-74
2023/05/09 05:02:01;;;;;;;15.03;11.03;;;16.00;99.90;;;;;;4992516;28;20578;-74
2023/05/09 05:04:27;;;;;;;15.27;11.57;;;16.10;99.90;;;;;;4992599;28;20533;-74
2023/05/09 05:06:53;;;;;;;13.47;11.67;;;16.20;99.90;;;;;;4992138;28;20447;-74
2023/05/09 05:09:19;;;;;;;18.77;14.10;;;16.30;99.90;;;;;;4992407;28;20168;-74
2023/05/09 05:11:44;;;;;;;15.33;13.10;;;16.40;99.90;;;;;;4992352;28;20184;-74
2023/05/09 05:14:10;;;;;;;16.30;12.20;;;16.40;99.90;;;;;;4992493;28;20223;-74
2023/05/09 05:16:35;;;;;;;18.70;13.20;;;16.40;99.90;;;;;;4992340;28;20189;-74
2023/05/09 05:19:01;;;;;;;12.37;11.07;;;16.50;99.90;;;;;;4990957;28;20188;-74
2023/05/09 05:21:26;;;;;;;17.80;13.47;;;16.70;99.90;;;;;;4991209;28;20264;-74
2023/05/09 05:23:52;;;;;;;16.47;11.10;;;16.70;99.90;;;;;;4991010;28;20169;-74
2023/05/09 05:26:17;;;;;;;12.80;10.67;;;16.90;99.90;;;;;;4992139;28;20209;-74
2023/05/09 05:28:43;;;;;;;19.53;12.33;;;17.00;99.90;;;;;;4992020;28;20169;-74
2023/05/09 05:31:08;;;;;;;14.97;10.83;;;17.10;99.90;;;;;;4992318;28;20169;-74
2023/05/09 05:33:34;;;;;;;13.17;11.10;;;17.10;99.90;;;;;;4991008;28;20165;-75
2023/05/09 05:36:00;;;;;;;12.10;9.90;;;17.30;99.90;;;;;;4992159;28;20196;-74
2023/05/09 05:38:25;;;;;;;15.97;12.00;;;17.40;99.90;;;;;;4991943;28;20161;-74
2023/05/09 05:40:51;;;;;;;13.30;11.00;;;17.60;99.90;;;;;;4992191;28;20253;-74
2023/05/09 05:43:17;;;;;;;12.70;11.40;;;18.10;99.90;;;;;;4994825;28;20169;-74
2023/05/09 05:45:42;;;;;;;12.07;10.77;;;18.70;99.90;;;;;;4994464;28;20669;-74
2023/05/09 05:48:08;;;;;;;13.10;10.90;;;19.10;99.90;;;;;;4995614;28;20432;-74
2023/05/09 05:50:35;;;;;;;17.60;11.13;;;19.30;99.90;;;;;;4995836;28;20171;-75
2023/05/09 05:53:01;;;;;;;12.43;10.90;;;19.70;99.90;;;;;;4995820;28;20157;-74
2023/05/09 05:55:26;;;;;;;12.97;10.93;;;20.10;99.90;;;;;;4995681;28;20419;-72
2023/05/09 05:57:52;;;;;;;13.30;11.47;;;20.20;99.90;;;;;;4994083;28;20275;-75
2023/05/09 06:00:17;;;;;;;11.47;10.00;;;20.40;99.90;;;;;;4995720;28;20179;-74
2023/05/09 06:02:44;;;;;;;12.70;9.67;;;20.60;99.90;;;;;;4995700;28;20634;-75
2023/05/09 06:05:10;;;;;;;17.30;12.17;;;20.80;99.90;;;;;;4995643;28;20198;-75
2023/05/09 06:07:36;;;;;;;12.20;10.90;;;20.90;99.90;;;;;;4993756;28;21073;-72
2023/05/09 06:10:01;;;;;;;12.77;9.63;;;21.20;99.90;;;;;;4994210;28;20440;-72
2023/05/09 06:12:27;;;;;;;10.83;9.80;;;21.50;99.90;;;;;;4995280;28;20185;-72
2023/05/09 06:14:52;;;;;;;12.50;10.63;;;22.00;99.90;;;;;;4994099;28;20260;-72
2023/05/09 06:17:18;;;;;;;10.43;9.37;;;22.40;99.90;;;;;;4995005;28;20652;-72
2023/05/09 06:19:44;;;;;;;13.30;11.90;;;22.50;99.90;;;;;;4993993;28;20199;-73
2023/05/09 06:22:10;;;;;;;12.53;10.40;;;22.30;99.90;;;;;;4994178;28;20520;-73
2023/05/09 06:24:35;;;;;;;11.80;10.57;;;22.30;99.90;;;;;;4995206;28;20168;-73
2023/05/09 06:27:01;;;;;;;15.07;12.20;;;22.10;99.90;;;;;;4994652;28;20602;-73
2023/05/09 06:29:27;;;;;;;15.00;10.23;;;21.90;99.90;;;;;;4994944;28;20626;-74
2023/05/09 06:31:52;;;;;;;11.90;10.10;;;22.00;99.90;;;;;;4995060;28;20248;-73
2023/05/09 06:34:18;;;;;;;11.70;10.27;;;22.10;99.90;;;;;;4995078;28;20750;-73
2023/05/09 06:36:43;;;;;;;13.97;10.70;;;22.00;99.90;;;;;;4994859;28;20267;-73
2023/05/09 06:39:09;;;;;;;12.17;10.90;;;22.00;99.90;;;;;;4994727;28;20256;-73
2023/05/09 06:41:34;;;;;;;12.73;10.20;;;22.30;99.90;;;;;;4994859;28;20517;-73
2023/05/09 06:44:01;;;;;;;12.90;9.87;;;22.50;99.90;;;;;;4994935;28;20173;-73
2023/05/09 06:46:27;;;;;;;9.37;8.37;;;22.80;99.90;;;;;;4994726;28;20199;-73
2023/05/09 06:48:52;;;;;;;10.53;9.13;;;22.80;99.90;;;;;;4993181;28;20483;-73
2023/05/09 06:51:18;;;;;;;13.67;7.33;;;23.00;99.90;;;;;;4994693;28;20161;-73
2023/05/09 06:53:43;;;;;;;10.27;8.30;;;22.80;99.90;;;;;;4993402;28;20635;-73
2023/05/09 06:56:10;;;;;;;7.17;5.80;;;23.10;99.90;;;;;;4994560;28;20199;-73
2023/05/09 06:58:35;;;;;;;9.37;6.03;;;23.10;99.90;;;;;;4993054;28;20469;-73
2023/05/09 07:01:01;;;;;;;7.50;6.50;;;23.30;99.90;;;;;;4994522;28;20462;-72
2023/05/09 07:03:26;;;;;;;6.53;5.47;;;23.70;99.90;;;;;;4994574;28;20196;-73
2023/05/09 07:05:53;;;;;;;5.60;5.10;;;24.00;99.90;;;;;;4994302;28;20574;-73
2023/05/09 07:08:19;;;;;;;4.57;4.10;;;24.10;99.90;;;;;;4994163;28;20183;-67
2023/05/09 07:10:44;;;;;;;5.50;4.63;;;24.10;99.90;;;;;;4994036;28;20499;-68
2023/05/09 07:13:10;;;;;;;6.00;4.30;;;24.60;99.90;;;;;;4992926;28;20189;-67
2023/05/09 07:15:35;;;;;;;5.30;4.20;;;25.00;99.90;;;;;;4994194;28;20169;-67
2023/05/09 07:18:01;;;;;;;5.00;4.13;;;24.40;99.90;;;;;;4992641;28;20669;-68
2023/05/09 07:20:26;;;;;;;5.33;4.83;;;23.90;99.90;;;;;;4994123;28;20169;-67
2023/05/09 07:22:52;;;;;;;5.53;4.80;;;23.80;99.90;;;;;;4994105;28;20265;-68
2023/05/09 07:25:17;;;;;;;4.47;4.07;;;23.60;99.90;;;;;;4994091;28;20194;-67
2023/05/09 07:27:43;;;;;;;5.80;4.40;;;23.70;99.90;;;;;;4993566;28;20205;-67
2023/05/09 07:30:09;;;;;;;4.63;3.90;;;23.50;99.90;;;;;;4992700;28;20175;-67
2023/05/09 07:32:35;;;;;;;3.63;3.33;;;23.40;99.90;;;;;;4992630;28;20179;-68
2023/05/09 07:35:00;;;;;;;7.90;4.33;;;23.00;99.90;;;;;;4992564;28;20472;-67
2023/05/09 07:37:26;;;;;;;4.33;3.50;;;22.70;99.90;;;;;;4993480;28;20192;-67
2023/05/09 07:39:51;;;;;;;4.73;4.00;;;22.70;99.90;;;;;;4993707;28;20462;-67
2023/05/09 07:42:17;;;;;;;2.33;2.13;;;22.50;99.90;;;;;;4993788;28;20673;-67
2023/05/09 07:44:42;;;;;;;4.50;3.13;;;22.50;99.90;;;;;;4993832;28;20175;-67
2023/05/09 07:47:08;;;;;;;3.67;3.30;;;22.80;99.90;;;;;;4993232;28;20192;-67
2023/05/09 07:49:34;;;;;;;3.57;3.20;;;22.80;99.90;;;;;;4993598;28;20177;-67
2023/05/09 07:52:00;;;;;;;6.30;3.87;;;22.70;99.90;;;;;;4992278;28;20227;-67
2023/05/09 07:54:26;;;;;;;3.47;2.90;;;22.80;99.90;;;;;;4993296;28;20498;-67
2023/05/09 07:56:51;;;;;;;4.20;3.30;;;23.30;99.90;;;;;;4993119;28;20658;-68
2023/05/09 07:59:18;;;;;;;3.97;2.83;;;23.50;99.90;;;;;;4993395;28;20778;-68
2023/05/09 08:01:43;;;;;;;5.93;2.30;;;24.10;99.90;;;;;;4993333;28;20510;-67
2023/05/09 08:04:09;;;;;;;4.60;3.47;;;25.10;99.90;;;;;;4993275;28;20415;-68
2023/05/09 08:06:35;;;;;;;3.10;2.80;;;26.60;99.90;;;;;;4992795;28;20283;-68
2023/05/09 08:09:01;;;;;;;2.97;2.77;;;27.60;96.30;;;;;;4993066;28;20168;-67
2023/05/09 08:11:26;;;;;;;2.93;2.63;;;28.50;87.40;;;;;;4993182;28;20412;-68
2023/05/09 08:13:52;;;;;;;3.27;2.97;;;29.50;77.70;;;;;;4993255;28;20176;-68
2023/05/09 08:16:18;;;;;;;3.23;3.00;;;30.80;73.70;;;;;;4992942;28;20211;-68
2023/05/09 08:18:44;;;;;;;2.87;2.67;;;31.10;65.90;;;;;;4992789;28;20173;-68
2023/05/09 08:21:10;;;;;;;3.07;2.80;;;32.10;60.20;;;;;;4993146;28;20216;-68
2023/05/09 08:23:35;;;;;;;2.80;1.80;;;32.00;54.40;;;;;;4993030;28;20901;-67
2023/05/09 08:26:01;;;;;;;2.17;2.03;;;33.00;55.50;;;;;;4992897;28;20205;-68
2023/05/09 08:28:27;;;;;;;2.40;2.20;;;33.90;51.60;;;;;;4992697;28;20187;-67
2023/05/09 08:30:53;;;;;;;1.80;1.70;;;33.80;48.10;;;;;;4992984;28;20627;-68
2023/05/09 08:33:19;;;;;;;2.50;2.30;;;34.50;50.00;;;;;;4992822;28;20416;-68
2023/05/09 08:35:48;;;;;;;2.40;2.20;;;34.60;47.10;;;;;;4992860;28;20466;-68
2023/05/09 08:38:14;;;;;;;3.13;2.20;;;34.60;48.20;;;;;;4992559;28;20169;-68
2023/05/09 08:40:40;;;;;;;2.70;2.50;;;35.20;46.00;;;;;;4992881;28;20471;-68
2023/05/09 08:43:06;;;;;;;3.00;2.40;;;35.40;42.70;;;;;;4992811;28;20383;-68
2023/05/09 08:45:35;;;;;;;2.93;2.70;;;33.80;44.00;;;;;;4991497;28;20184;-68
2023/05/09 08:48:05;;;;;;;2.20;2.00;;;33.30;45.40;;;;;;4992250;28;20570;-68
2023/05/09 08:50:31;;;;;;;2.90;2.70;;;33.70;47.40;;;;;;4992669;28;20408;-68
2023/05/09 08:52:57;;;;;;;2.33;2.20;;;33.40;45.10;;;;;;4992636;28;20415;-67
2023/05/09 08:55:23;;;;;;;2.90;2.70;;;33.20;45.90;;;;;;4992617;28;20416;-68
2023/05/09 08:57:50;;;;;;;2.53;2.33;;;32.80;46.30;;;;;;4992267;28;20188;-68
2023/05/09 09:00:19;;;;;;;2.93;2.63;;;33.30;46.90;;;;;;4992562;28;20439;-67
2023/05/09 09:02:44;;;;;;;3.00;2.80;;;33.60;46.10;;;;;;4992477;28;20405;-68
2023/05/09 09:05:10;;;;;;;5.00;2.67;;;33.30;45.90;;;;;;4992462;28;20427;-68
2023/05/09 09:07:37;;;;;;;2.70;2.50;;;32.50;46.20;;;;;;4992012;28;20204;-67
2023/05/09 09:10:03;;;;;;;2.50;2.30;;;32.20;46.30;;;;;;4992488;28;20792;-67
2023/05/09 09:12:30;;;;;;;5.60;2.33;;;31.60;47.50;;;;;;4991075;28;20953;-68
2023/05/09 09:14:59;;;;;;;2.60;2.40;;;32.10;48.30;;;;;;4992388;28;20404;-68
2023/05/09 09:17:26;;;;;;;1.97;1.80;;;32.50;47.80;;;;;;4993315;28;20428;-68
2023/05/09 09:19:57;;;;;;;2.50;2.30;;;32.80;48.60;;;;;;4996482;28;20447;-68
2023/05/09 09:22:23;;;;;;;3.10;1.90;;;33.60;46.40;;;;;;4996358;28;20901;-69
2023/05/09 09:24:49;;;;;;;2.93;2.30;;;33.80;45.90;;;;;;4996283;28;20781;-69
2023/05/09 09:27:15;;;;;;;3.00;2.43;;;33.20;45.20;;;;;;4995825;28;20521;-67
2023/05/09 09:29:41;;;;;;;3.57;2.90;;;32.20;45.90;;;;;;5010589;28;20494;-68
2023/05/09 09:32:06;;;;;;;2.10;2.00;;;31.90;46.30;;;;;;5015771;28;20255;-67
2023/05/09 09:34:32;;;;;;;4.03;2.50;;;32.30;46.80;;;;;;5015526;28;20186;-69
2023/05/09 09:36:59;;;;;;;2.50;2.30;;;32.00;47.10;;;;;;5015347;28;20199;-68
2023/05/09 09:39:25;;;;;;;9.47;2.60;;;32.60;46.60;;;;;;5031001;28;20188;-68
2023/05/09 09:41:50;;;;;;;2.80;2.60;;;32.30;46.30;;;;;;5015665;28;20407;-67
2023/05/09 09:44:18;;;;;;;3.17;1.83;;;32.00;45.70;;;;;;5015411;28;20183;-67
2023/05/09 09:46:46;;;;;;;3.20;2.27;;;32.20;47.20;;;;;;5015386;28;20200;-68
2023/05/09 09:49:13;;;;;;;5.03;2.00;;;31.80;46.80;;;;;;5015348;28;20399;-67
2023/05/09 09:51:39;;;;;;;2.30;2.10;;;32.00;46.90;;;;;;5015488;28;20413;-68
2023/05/09 09:54:09;;;;;;;2.10;2.00;;;32.50;46.70;;;;;;5015349;28;20817;-67
2023/05/09 09:56:42;;;;;;;2.00;1.90;;;32.90;46.60;;;;;;5030352;28;20521;-67
2023/05/09 09:59:19;;;;;;;3.10;2.57;;;33.10;46.10;;;;;;5013879;28;20756;-68
2023/05/09 10:02:02;;;;;;;3.10;2.10;;;32.60;45.60;;;;;;5015389;28;20419;-69
2023/05/09 10:04:30;;;;;;;2.70;2.27;;;32.10;46.20;;;;;;5015223;28;20462;-68
2023/05/09 10:07:02;;;;;;;2.27;2.10;;;32.00;46.70;;;;;;5014639;28;20454;-69
2023/05/09 10:09:28;;;;;;;2.97;2.13;;;31.70;46.80;;;;;;5015215;28;20392;-69
2023/05/09 10:11:55;;;;;;;2.60;2.40;;;31.00;47.50;;;;;;5014946;28;20431;-69
2023/05/09 10:14:25;;;;;;;4.13;1.90;;;30.70;48.30;;;;;;5015075;28;20498;-69
2023/05/09 10:16:53;;;;;;;2.53;2.33;;;30.30;49.10;;;;;;5014792;28;20445;-68
2023/05/09 10:19:20;;;;;;;3.83;2.40;;;30.20;49.90;;;;;;5014967;28;20731;-69
2023/05/09 10:21:52;;;;;;;2.50;2.30;;;31.00;50.00;;;;;;5014560;28;20469;-67
2023/05/09 10:24:30;;;;;;;4.17;3.00;;;31.40;48.50;;;;;;5014761;28;20501;-69
2023/05/09 10:27:04;;;;;;;2.23;2.13;;;31.20;47.90;;;;;;5014541;28;20459;-68
2023/05/09 10:29:36;;;;;;;2.73;2.53;;;31.10;49.10;;;;;;5014457;28;20407;-69
2023/05/09 10:32:10;;;;;;;3.77;2.80;;;31.00;48.10;;;;;;5014578;28;20403;-70
2023/05/09 10:34:39;;;;;;;3.47;2.33;;;30.60;49.10;;;;;;5014599;28;20410;-68
2023/05/09 10:37:05;;;;;;;2.93;2.63;;;30.20;49.20;;;;;;5014180;28;20502;-69
2023/05/09 10:39:31;;;;;;;1.90;1.80;;;30.10;50.30;;;;;;5014660;28;20425;-68
2023/05/09 10:41:58;;;;;;;2.47;2.10;;;31.40;50.10;;;;;;5014504;28;20434;-69
2023/05/09 10:44:24;;;;;;;2.73;2.53;;;32.30;47.80;;;;;;5014393;28;20812;-68
2023/05/09 10:46:50;;;;;;;6.70;1.80;;;31.80;47.10;;;;;;5014017;28;20458;-70
2023/05/09 10:49:16;;;;;;;2.30;2.10;;;31.10;48.10;;;;;;5014280;28;20172;-69
2023/05/09 10:51:42;;;;;;;2.53;2.13;;;29.90;49.20;;;;;;5014232;28;20434;-69
2023/05/09 10:54:24;;;;;;;1.93;1.83;;;28.90;49.90;;;;;;5014269;28;20403;-68
2023/05/09 10:56:50;;;;;;;2.20;2.00;;;28.20;51.50;;;;;;5014014;28;20213;-69
2023/05/09 10:59:38;;;;;;;4.60;2.43;;;28.10;52.40;;;;;;5014037;28;20956;-69
2023/05/09 11:02:09;;;;;;;5.37;2.63;;;27.90;54.40;;;;;;5014082;28;20544;-69
2023/05/09 11:04:37;;;;;;;2.63;2.43;;;28.90;55.00;;;;;;5014047;28;20415;-68
2023/05/09 11:07:23;;;;;;;2.70;2.50;;;30.00;52.10;;;;;;5013595;28;20543;-69
2023/05/09 11:10:06;;;;;;;3.73;3.27;;;31.20;50.90;;;;;;5013940;28;20399;-68
2023/05/09 11:12:32;;;;;;;4.90;3.37;;;31.40;49.70;;;;;;5013772;28;21042;-69
2023/05/09 11:15:05;;;;;;;2.80;2.60;;;31.10;49.80;;;;;;5029114;28;20415;-70
2023/05/09 11:17:31;;;;;;;3.00;2.50;;;30.80;49.40;;;;;;5013587;28;20614;-68
2023/05/09 11:20:04;;;;;;;3.90;3.33;;;30.20;50.50;;;;;;5013709;28;20494;-69
2023/05/09 11:22:43;;;;;;;3.03;2.80;;;29.40;50.40;;;;;;5013762;28;20493;-68
2023/05/09 11:25:13;;;;;;;3.40;3.10;;;28.60;52.40;;;;;;5013695;28;20446;-68
2023/05/09 11:27:49;;;;;;;3.30;3.10;;;28.20;53.30;;;;;;5012041;28;20819;-70
2023/05/09 11:30:17;;;;;;;3.50;3.23;;;28.30;54.30;;;;;;5013599;28;20792;-69
2023/05/09 11:32:57;;;;;;;3.10;2.80;;;28.70;53.30;;;;;;5013391;28;20873;-69
2023/05/09 11:35:25;;;;;;;2.83;2.63;;;30.00;53.90;;;;;;5013449;28;20410;-70
2023/05/09 11:37:58;;;;;;;2.70;2.50;;;31.10;52.10;;;;;;5013086;28;20435;-70
2023/05/09 11:40:24;;;;;;;3.20;2.90;;;31.50;48.90;;;;;;5012502;28;20490;-68
2023/05/09 11:42:52;;;;;;;4.63;3.20;;;30.70;49.00;;;;;;5013288;28;20929;-69
2023/05/09 11:45:19;;;;;;;3.20;2.90;;;29.60;49.70;;;;;;5013295;28;20196;-69
2023/05/09 11:47:46;;;;;;;3.10;2.90;;;29.00;51.00;;;;;;5012813;28;20458;-70
2023/05/09 11:50:14;;;;;;;3.20;2.37;;;28.00;51.60;;;;;;5013181;28;20510;-70
2023/05/09 11:52:40;;;;;;;5.30;2.90;;;27.70;53.00;;;;;;5013102;28;20426;-70
2023/05/09 11:55:10;;;;;;;3.30;2.93;;;27.60;54.10;;;;;;5013154;28;20418;-69
2023/05/09 11:57:42;;;;;;;3.80;3.13;;;27.50;54.80;;;;;;5012735;28;20439;-70
2023/05/09 12:00:09;;;;;;;2.60;2.50;;;27.40;55.60;;;;;;5013024;28;20418;-69
2023/05/09 12:02:35;;;;;;;2.90;2.70;;;27.70;55.10;;;;;;5013004;28;20411;-69
2023/05/09 12:05:09;;;;;;;2.93;2.73;;;28.30;55.80;;;;;;5013012;28;20411;-70
2023/05/09 12:07:36;;;;;;;2.70;2.50;;;28.90;55.20;;;;;;5012557;28;20454;-69
2023/05/09 12:10:05;;;;;;;2.90;2.70;;;28.90;53.50;;;;;;5012864;28;20399;-69
2023/05/09 12:12:34;;;;;;;3.07;2.63;;;28.50;52.70;;;;;;5012681;28;20506;-68
2023/05/09 12:15:07;;;;;;;2.13;2.00;;;28.70;54.40;;;;;;5012822;28;20407;-68
2023/05/09 12:17:34;;;;;;;3.00;2.80;;;28.90;54.40;;;;;;5012373;28;20439;-69
2023/05/09 12:20:00;;;;;;;3.37;3.07;;;28.90;54.10;;;;;;5012727;28;20414;-70
2023/05/09 12:22:26;;;;;;;3.00;2.67;;;28.70;54.50;;;;;;5012663;28;20798;-69
2023/05/09 12:24:53;;;;;;;3.20;2.80;;;28.50;53.60;;;;;;5012644;28;20410;-70
2023/05/09 12:27:19;;;;;;;3.70;2.60;;;28.20;53.70;;;;;;5012153;28;20458;-69
2023/05/09 12:29:47;;;;;;;3.23;2.57;;;28.00;53.90;;;;;;5012571;28;20399;-68
2023/05/09 12:32:14;;;;;;;2.80;2.60;;;27.80;54.10;;;;;;5012496;28;20183;-68
2023/05/09 12:34:40;;;;;;;2.37;2.10;;;27.50;54.60;;;;;;5012490;28;20414;-68
2023/05/09 12:37:13;;;;;;;3.00;2.80;;;27.00;54.50;;;;;;5012132;28;20424;-68
2023/05/09 12:39:40;;;;;;;2.70;2.40;;;26.70;55.10;;;;;;5012454;28;20415;-68